sensor_id;sensor_type;location;lat;lon;timestamp;P1;durP1;ratioP1;P2;durP2;ratioP2
46266;SDS011;31998;48.798;15.066;2022-08-01T00:00:24;3.33;;;3.23;;
46266;SDS011;31998;48.798;15.066;2022-08-01T00:02:49;3.83;;;3.73;;
46266;SDS011;31998;48.798;15.066;2022-08-01T00:05:15;3.37;;;3.10;;
46266;SDS011;31998;48.798;15.066;2022-08-01T00:07:40;3.10;;;2.90;;
46266;SDS011;31998;48.798;15.066;2022-08-01T00:10:11;3.73;;;3.53;;
46266;SDS011;31998;48.798;15.066;2022-08-01T00:12:39;3.80;;;3.50;;
46266;SDS011;31998;48.798;15.066;2022-08-01T00:15:05;3.43;;;3.33;;
46266;SDS011;31998;48.798;15.066;2022-08-01T00:17:35;4.00;;;3.77;;
46266;SDS011;31998;48.798;15.066;2022-08-01T00:20:01;3.40;;;3.20;;
46266;SDS011;31998;48.798;15.066;2022-08-01T00:22:29;3.30;;;3.20;;
46266;SDS011;31998;48.798;15.066;2022-08-01T00:24:55;4.27;;;3.80;;
46266;SDS011;31998;48.798;15.066;2022-08-01T00:27:21;3.63;;;3.43;;
46266;SDS011;31998;48.798;15.066;2022-08-01T00:29:46;3.93;;;3.73;;
46266;SDS011;31998;48.798;15.066;2022-08-01T00:32:12;4.50;;;4.10;;
46266;SDS011;31998;48.798;15.066;2022-08-01T00:34:37;3.80;;;3.60;;
46266;SDS011;31998;48.798;15.066;2022-08-01T00:37:02;4.40;;;4.00;;
46266;SDS011;31998;48.798;15.066;2022-08-01T00:39:28;5.47;;;4.20;;
46266;SDS011;31998;48.798;15.066;2022-08-01T00:41:53;3.93;;;3.70;;
46266;SDS011;31998;48.798;15.066;2022-08-01T00:44:19;4.20;;;3.90;;
46266;SDS011;31998;48.798;15.066;2022-08-01T00:46:44;4.10;;;3.97;;
46266;SDS011;31998;48.798;15.066;2022-08-01T00:49:09;3.33;;;3.03;;
46266;SDS011;31998;48.798;15.066;2022-08-01T00:51:35;5.23;;;3.70;;
46266;SDS011;31998;48.798;15.066;2022-08-01T00:54:00;4.27;;;4.17;;
46266;SDS011;31998;48.798;15.066;2022-08-01T00:56:27;4.20;;;4.00;;
46266;SDS011;31998;48.798;15.066;2022-08-01T00:58:54;4.03;;;3.93;;
46266;SDS011;31998;48.798;15.066;2022-08-01T01:01:20;4.87;;;4.20;;
46266;SDS011;31998;48.798;15.066;2022-08-01T01:03:47;5.13;;;4.63;;
46266;SDS011;31998;48.798;15.066;2022-08-01T01:12:15;5.70;;;5.40;;
46266;SDS011;31998;48.798;15.066;2022-08-01T01:14:53;4.87;;;4.50;;
46266;SDS011;31998;48.798;15.066;2022-08-01T01:17:42;4.67;;;4.47;;
46266;SDS011;31998;48.798;15.066;2022-08-01T01:20:13;4.17;;;3.97;;
46266;SDS011;31998;48.798;15.066;2022-08-01T01:25:10;4.80;;;4.40;;
46266;SDS011;31998;48.798;15.066;2022-08-01T01:27:57;4.57;;;4.33;;
46266;SDS011;31998;48.798;15.066;2022-08-01T01:30:28;5.50;;;4.97;;
46266;SDS011;31998;48.798;15.066;2022-08-01T01:32:59;4.80;;;4.60;;
46266;SDS011;31998;48.798;15.066;2022-08-01T01:35:29;5.67;;;5.37;;
46266;SDS011;31998;48.798;15.066;2022-08-01T01:38:05;5.20;;;4.90;;
46266;SDS011;31998;48.798;15.066;2022-08-01T01:40:35;5.17;;;4.60;;
46266;SDS011;31998;48.798;15.066;2022-08-01T01:43:03;5.63;;;5.23;;
46266;SDS011;31998;48.798;15.066;2022-08-01T01:45:32;5.00;;;4.70;;
46266;SDS011;31998;48.798;15.066;2022-08-01T01:48:00;7.70;;;5.07;;
46266;SDS011;31998;48.798;15.066;2022-08-01T01:50:28;5.10;;;4.80;;
46266;SDS011;31998;48.798;15.066;2022-08-01T01:52:55;8.73;;;4.90;;
46266;SDS011;31998;48.798;15.066;2022-08-01T01:55:23;4.60;;;4.40;;
46266;SDS011;31998;48.798;15.066;2022-08-01T01:57:50;5.67;;;5.07;;
46266;SDS011;31998;48.798;15.066;2022-08-01T02:00:17;4.40;;;4.20;;
46266;SDS011;31998;48.798;15.066;2022-08-01T02:02:43;5.87;;;5.67;;
46266;SDS011;31998;48.798;15.066;2022-08-01T02:05:10;5.50;;;5.03;;
46266;SDS011;31998;48.798;15.066;2022-08-01T02:07:37;5.50;;;5.30;;
46266;SDS011;31998;48.798;15.066;2022-08-01T02:10:04;6.03;;;5.40;;
46266;SDS011;31998;48.798;15.066;2022-08-01T02:12:33;5.97;;;5.47;;
46266;SDS011;31998;48.798;15.066;2022-08-01T02:15:01;6.50;;;5.13;;
46266;SDS011;31998;48.798;15.066;2022-08-01T02:17:28;5.10;;;4.90;;
46266;SDS011;31998;48.798;15.066;2022-08-01T02:19:56;5.80;;;5.33;;
46266;SDS011;31998;48.798;15.066;2022-08-01T02:22:32;6.13;;;5.83;;
46266;SDS011;31998;48.798;15.066;2022-08-01T02:25:03;5.43;;;5.03;;
46266;SDS011;31998;48.798;15.066;2022-08-01T02:27:40;5.23;;;4.90;;
46266;SDS011;31998;48.798;15.066;2022-08-01T02:30:10;8.90;;;5.43;;
46266;SDS011;31998;48.798;15.066;2022-08-01T02:32:46;5.70;;;5.40;;
46266;SDS011;31998;48.798;15.066;2022-08-01T02:35:19;6.10;;;5.60;;
46266;SDS011;31998;48.798;15.066;2022-08-01T02:37:50;5.40;;;5.20;;
46266;SDS011;31998;48.798;15.066;2022-08-01T02:40:18;7.90;;;6.07;;
46266;SDS011;31998;48.798;15.066;2022-08-01T02:42:47;5.13;;;4.90;;
46266;SDS011;31998;48.798;15.066;2022-08-01T02:45:15;6.20;;;5.30;;
46266;SDS011;31998;48.798;15.066;2022-08-01T02:47:43;8.10;;;6.50;;
46266;SDS011;31998;48.798;15.066;2022-08-01T02:50:11;6.93;;;6.50;;
46266;SDS011;31998;48.798;15.066;2022-08-01T02:52:39;5.90;;;5.70;;
46266;SDS011;31998;48.798;15.066;2022-08-01T02:55:06;6.30;;;6.00;;
46266;SDS011;31998;48.798;15.066;2022-08-01T02:57:34;5.77;;;5.37;;
46266;SDS011;31998;48.798;15.066;2022-08-01T03:00:03;5.87;;;5.57;;
46266;SDS011;31998;48.798;15.066;2022-08-01T03:02:29;6.13;;;5.70;;
46266;SDS011;31998;48.798;15.066;2022-08-01T03:04:56;6.17;;;5.73;;
46266;SDS011;31998;48.798;15.066;2022-08-01T03:07:22;6.10;;;5.63;;
46266;SDS011;31998;48.798;15.066;2022-08-01T03:09:48;6.17;;;5.60;;
46266;SDS011;31998;48.798;15.066;2022-08-01T03:12:17;5.90;;;5.70;;
46266;SDS011;31998;48.798;15.066;2022-08-01T03:14:44;5.67;;;5.47;;
46266;SDS011;31998;48.798;15.066;2022-08-01T03:17:13;6.63;;;6.30;;
46266;SDS011;31998;48.798;15.066;2022-08-01T03:19:41;6.40;;;5.10;;
46266;SDS011;31998;48.798;15.066;2022-08-01T03:22:11;5.83;;;5.53;;
46266;SDS011;31998;48.798;15.066;2022-08-01T03:24:39;6.13;;;5.67;;
46266;SDS011;31998;48.798;15.066;2022-08-01T03:27:06;5.83;;;5.40;;
46266;SDS011;31998;48.798;15.066;2022-08-01T03:29:33;6.67;;;6.37;;
46266;SDS011;31998;48.798;15.066;2022-08-01T03:32:01;6.20;;;5.90;;
46266;SDS011;31998;48.798;15.066;2022-08-01T03:34:27;5.10;;;4.70;;
46266;SDS011;31998;48.798;15.066;2022-08-01T03:37:04;6.27;;;5.70;;
46266;SDS011;31998;48.798;15.066;2022-08-01T03:39:37;6.23;;;5.83;;
46266;SDS011;31998;48.798;15.066;2022-08-01T03:42:10;5.37;;;5.17;;
46266;SDS011;31998;48.798;15.066;2022-08-01T03:44:39;6.90;;;4.70;;
46266;SDS011;31998;48.798;15.066;2022-08-01T03:47:07;6.63;;;6.13;;
46266;SDS011;31998;48.798;15.066;2022-08-01T03:49:41;7.20;;;6.80;;
46266;SDS011;31998;48.798;15.066;2022-08-01T03:52:09;5.13;;;5.03;;
46266;SDS011;31998;48.798;15.066;2022-08-01T03:54:37;6.10;;;5.70;;
46266;SDS011;31998;48.798;15.066;2022-08-01T03:57:08;4.73;;;4.57;;
46266;SDS011;31998;48.798;15.066;2022-08-01T03:59:35;7.07;;;6.77;;
46266;SDS011;31998;48.798;15.066;2022-08-01T04:02:02;7.30;;;6.80;;
46266;SDS011;31998;48.798;15.066;2022-08-01T04:04:29;6.20;;;5.90;;
46266;SDS011;31998;48.798;15.066;2022-08-01T04:06:55;4.70;;;4.30;;
46266;SDS011;31998;48.798;15.066;2022-08-01T04:09:21;5.03;;;4.93;;
46266;SDS011;31998;48.798;15.066;2022-08-01T04:11:47;6.37;;;5.20;;
46266;SDS011;31998;48.798;15.066;2022-08-01T04:14:13;6.47;;;5.77;;
46266;SDS011;31998;48.798;15.066;2022-08-01T04:16:39;5.73;;;5.30;;
46266;SDS011;31998;48.798;15.066;2022-08-01T04:19:04;6.13;;;5.50;;
46266;SDS011;31998;48.798;15.066;2022-08-01T04:21:32;6.13;;;5.87;;
46266;SDS011;31998;48.798;15.066;2022-08-01T04:24:00;12.80;;;5.90;;
46266;SDS011;31998;48.798;15.066;2022-08-01T04:26:30;9.90;;;6.30;;
46266;SDS011;31998;48.798;15.066;2022-08-01T04:28:58;9.97;;;6.20;;
46266;SDS011;31998;48.798;15.066;2022-08-01T04:31:27;7.37;;;7.00;;
46266;SDS011;31998;48.798;15.066;2022-08-01T04:33:55;7.33;;;6.20;;
46266;SDS011;31998;48.798;15.066;2022-08-01T04:36:23;6.40;;;6.20;;
46266;SDS011;31998;48.798;15.066;2022-08-01T04:38:52;6.37;;;6.07;;
46266;SDS011;31998;48.798;15.066;2022-08-01T04:41:22;9.47;;;6.30;;
46266;SDS011;31998;48.798;15.066;2022-08-01T04:43:48;6.33;;;6.10;;
46266;SDS011;31998;48.798;15.066;2022-08-01T04:46:16;6.00;;;5.60;;
46266;SDS011;31998;48.798;15.066;2022-08-01T04:48:42;6.27;;;5.77;;
46266;SDS011;31998;48.798;15.066;2022-08-01T04:51:16;5.63;;;5.43;;
46266;SDS011;31998;48.798;15.066;2022-08-01T04:53:46;7.53;;;6.43;;
46266;SDS011;31998;48.798;15.066;2022-08-01T04:56:12;7.27;;;6.70;;
46266;SDS011;31998;48.798;15.066;2022-08-01T04:58:38;7.10;;;6.43;;
46266;SDS011;31998;48.798;15.066;2022-08-01T05:01:05;7.20;;;6.70;;
46266;SDS011;31998;48.798;15.066;2022-08-01T05:03:31;6.90;;;6.30;;
46266;SDS011;31998;48.798;15.066;2022-08-01T05:05:56;7.00;;;6.50;;
46266;SDS011;31998;48.798;15.066;2022-08-01T05:08:22;7.73;;;7.07;;
46266;SDS011;31998;48.798;15.066;2022-08-01T05:10:47;6.10;;;5.80;;
46266;SDS011;31998;48.798;15.066;2022-08-01T05:13:13;7.60;;;6.87;;
46266;SDS011;31998;48.798;15.066;2022-08-01T05:15:38;5.53;;;5.37;;
46266;SDS011;31998;48.798;15.066;2022-08-01T05:18:04;7.20;;;6.70;;
46266;SDS011;31998;48.798;15.066;2022-08-01T05:20:29;6.37;;;6.03;;
46266;SDS011;31998;48.798;15.066;2022-08-01T05:22:55;29.43;;;7.13;;
46266;SDS011;31998;48.798;15.066;2022-08-01T05:25:20;5.33;;;5.13;;
46266;SDS011;31998;48.798;15.066;2022-08-01T05:27:46;24.70;;;6.97;;
46266;SDS011;31998;48.798;15.066;2022-08-01T05:30:12;8.60;;;6.07;;
46266;SDS011;31998;48.798;15.066;2022-08-01T05:32:37;6.43;;;6.23;;
46266;SDS011;31998;48.798;15.066;2022-08-01T05:35:03;6.53;;;6.00;;
46266;SDS011;31998;48.798;15.066;2022-08-01T05:37:29;6.40;;;6.10;;
46266;SDS011;31998;48.798;15.066;2022-08-01T05:39:55;6.70;;;6.20;;
46266;SDS011;31998;48.798;15.066;2022-08-01T05:42:20;6.53;;;6.13;;
46266;SDS011;31998;48.798;15.066;2022-08-01T05:44:46;6.83;;;6.33;;
46266;SDS011;31998;48.798;15.066;2022-08-01T05:47:12;7.37;;;6.50;;
46266;SDS011;31998;48.798;15.066;2022-08-01T05:49:38;7.93;;;7.00;;
46266;SDS011;31998;48.798;15.066;2022-08-01T05:52:03;7.30;;;6.90;;
46266;SDS011;31998;48.798;15.066;2022-08-01T05:54:30;6.37;;;5.97;;
46266;SDS011;31998;48.798;15.066;2022-08-01T05:56:55;8.30;;;7.10;;
46266;SDS011;31998;48.798;15.066;2022-08-01T05:59:26;7.80;;;5.70;;
46266;SDS011;31998;48.798;15.066;2022-08-01T06:01:52;6.43;;;6.13;;
46266;SDS011;31998;48.798;15.066;2022-08-01T06:04:17;7.90;;;7.27;;
46266;SDS011;31998;48.798;15.066;2022-08-01T06:06:43;8.53;;;6.73;;
46266;SDS011;31998;48.798;15.066;2022-08-01T06:09:08;7.80;;;7.10;;
46266;SDS011;31998;48.798;15.066;2022-08-01T06:11:34;7.40;;;6.63;;
46266;SDS011;31998;48.798;15.066;2022-08-01T06:13:59;11.83;;;6.80;;
46266;SDS011;31998;48.798;15.066;2022-08-01T06:16:25;7.10;;;6.70;;
46266;SDS011;31998;48.798;15.066;2022-08-01T06:18:50;7.50;;;6.90;;
46266;SDS011;31998;48.798;15.066;2022-08-01T06:21:16;6.83;;;6.43;;
46266;SDS011;31998;48.798;15.066;2022-08-01T06:23:41;7.67;;;6.60;;
46266;SDS011;31998;48.798;15.066;2022-08-01T06:26:07;4.73;;;4.63;;
46266;SDS011;31998;48.798;15.066;2022-08-01T06:28:32;6.43;;;5.97;;
46266;SDS011;31998;48.798;15.066;2022-08-01T06:30:58;6.13;;;5.30;;
46266;SDS011;31998;48.798;15.066;2022-08-01T06:33:24;11.13;;;5.63;;
46266;SDS011;31998;48.798;15.066;2022-08-01T06:35:50;5.97;;;5.67;;
46266;SDS011;31998;48.798;15.066;2022-08-01T06:38:15;5.10;;;4.80;;
46266;SDS011;31998;48.798;15.066;2022-08-01T06:40:41;5.50;;;5.10;;
46266;SDS011;31998;48.798;15.066;2022-08-01T06:43:06;4.83;;;4.43;;
46266;SDS011;31998;48.798;15.066;2022-08-01T06:45:32;4.53;;;4.20;;
46266;SDS011;31998;48.798;15.066;2022-08-01T06:47:58;4.03;;;3.90;;
46266;SDS011;31998;48.798;15.066;2022-08-01T06:50:23;4.63;;;4.20;;
46266;SDS011;31998;48.798;15.066;2022-08-01T06:52:49;5.57;;;3.57;;
46266;SDS011;31998;48.798;15.066;2022-08-01T06:55:14;9.47;;;3.57;;
46266;SDS011;31998;48.798;15.066;2022-08-01T06:57:46;8.07;;;3.53;;
46266;SDS011;31998;48.798;15.066;2022-08-01T07:00:13;7.00;;;3.53;;
46266;SDS011;31998;48.798;15.066;2022-08-01T07:02:39;7.93;;;3.40;;
46266;SDS011;31998;48.798;15.066;2022-08-01T07:05:06;11.00;;;2.80;;
46266;SDS011;31998;48.798;15.066;2022-08-01T07:07:31;8.67;;;3.00;;
46266;SDS011;31998;48.798;15.066;2022-08-01T07:09:57;16.50;;;3.73;;
46266;SDS011;31998;48.798;15.066;2022-08-01T07:12:22;16.43;;;3.30;;
46266;SDS011;31998;48.798;15.066;2022-08-01T07:14:48;2.10;;;2.00;;
46266;SDS011;31998;48.798;15.066;2022-08-01T07:17:13;2.27;;;2.13;;
46266;SDS011;31998;48.798;15.066;2022-08-01T07:19:39;2.27;;;2.17;;
46266;SDS011;31998;48.798;15.066;2022-08-01T07:22:04;2.40;;;2.30;;
46266;SDS011;31998;48.798;15.066;2022-08-01T07:24:30;3.07;;;2.20;;
46266;SDS011;31998;48.798;15.066;2022-08-01T07:26:56;2.30;;;2.20;;
46266;SDS011;31998;48.798;15.066;2022-08-01T07:29:25;2.80;;;2.60;;
46266;SDS011;31998;48.798;15.066;2022-08-01T07:31:54;2.30;;;2.10;;
46266;SDS011;31998;48.798;15.066;2022-08-01T07:34:21;2.60;;;2.40;;
46266;SDS011;31998;48.798;15.066;2022-08-01T07:36:47;5.23;;;2.50;;
46266;SDS011;31998;48.798;15.066;2022-08-01T07:39:12;2.77;;;2.63;;
46266;SDS011;31998;48.798;15.066;2022-08-01T07:41:38;2.40;;;2.30;;
46266;SDS011;31998;48.798;15.066;2022-08-01T07:44:03;3.10;;;2.90;;
46266;SDS011;31998;48.798;15.066;2022-08-01T07:46:29;2.93;;;2.73;;
46266;SDS011;31998;48.798;15.066;2022-08-01T07:48:56;2.43;;;2.33;;
46266;SDS011;31998;48.798;15.066;2022-08-01T07:51:21;1.93;;;1.83;;
46266;SDS011;31998;48.798;15.066;2022-08-01T07:53:47;2.60;;;2.50;;
46266;SDS011;31998;48.798;15.066;2022-08-01T07:56:13;3.03;;;2.03;;
46266;SDS011;31998;48.798;15.066;2022-08-01T07:58:39;2.17;;;2.03;;
46266;SDS011;31998;48.798;15.066;2022-08-01T08:01:05;3.97;;;3.67;;
46266;SDS011;31998;48.798;15.066;2022-08-01T08:03:30;2.30;;;2.10;;
46266;SDS011;31998;48.798;15.066;2022-08-01T08:05:56;2.60;;;2.30;;
46266;SDS011;31998;48.798;15.066;2022-08-01T08:08:21;2.20;;;2.10;;
46266;SDS011;31998;48.798;15.066;2022-08-01T08:10:47;1.80;;;1.70;;
46266;SDS011;31998;48.798;15.066;2022-08-01T08:13:12;2.50;;;2.40;;
46266;SDS011;31998;48.798;15.066;2022-08-01T08:15:38;2.27;;;2.07;;
46266;SDS011;31998;48.798;15.066;2022-08-01T08:18:03;4.00;;;2.37;;
46266;SDS011;31998;48.798;15.066;2022-08-01T08:20:29;2.90;;;2.30;;
46266;SDS011;31998;48.798;15.066;2022-08-01T08:22:55;8.90;;;2.10;;
46266;SDS011;31998;48.798;15.066;2022-08-01T08:25:21;1.43;;;1.43;;
46266;SDS011;31998;48.798;15.066;2022-08-01T08:27:47;4.03;;;2.30;;
46266;SDS011;31998;48.798;15.066;2022-08-01T08:30:13;2.33;;;2.17;;
46266;SDS011;31998;48.798;15.066;2022-08-01T08:32:39;6.20;;;2.07;;
46266;SDS011;31998;48.798;15.066;2022-08-01T08:35:05;2.00;;;1.90;;
46266;SDS011;31998;48.798;15.066;2022-08-01T08:37:32;3.90;;;2.10;;
46266;SDS011;31998;48.798;15.066;2022-08-01T08:39:59;2.17;;;2.07;;
46266;SDS011;31998;48.798;15.066;2022-08-01T08:42:25;5.23;;;2.30;;
46266;SDS011;31998;48.798;15.066;2022-08-01T08:44:50;4.50;;;2.03;;
46266;SDS011;31998;48.798;15.066;2022-08-01T08:47:15;4.33;;;1.80;;
46266;SDS011;31998;48.798;15.066;2022-08-01T08:49:43;1.83;;;1.83;;
46266;SDS011;31998;48.798;15.066;2022-08-01T08:52:09;1.73;;;1.63;;
46266;SDS011;31998;48.798;15.066;2022-08-01T08:54:36;2.00;;;2.00;;
46266;SDS011;31998;48.798;15.066;2022-08-01T08:57:03;3.60;;;1.73;;
46266;SDS011;31998;48.798;15.066;2022-08-01T08:59:30;3.50;;;2.00;;
46266;SDS011;31998;48.798;15.066;2022-08-01T09:01:56;1.87;;;1.73;;
46266;SDS011;31998;48.798;15.066;2022-08-01T09:04:23;5.00;;;1.90;;
46266;SDS011;31998;48.798;15.066;2022-08-01T09:06:49;1.73;;;1.63;;
46266;SDS011;31998;48.798;15.066;2022-08-01T09:09:14;1.90;;;1.90;;
46266;SDS011;31998;48.798;15.066;2022-08-01T09:11:40;2.30;;;2.10;;
46266;SDS011;31998;48.798;15.066;2022-08-01T09:14:07;1.80;;;1.70;;
46266;SDS011;31998;48.798;15.066;2022-08-01T09:16:33;2.60;;;1.77;;
46266;SDS011;31998;48.798;15.066;2022-08-01T09:19:09;2.03;;;1.93;;
46266;SDS011;31998;48.798;15.066;2022-08-01T09:21:40;2.90;;;2.73;;
46266;SDS011;31998;48.798;15.066;2022-08-01T09:24:21;2.43;;;2.23;;
46266;SDS011;31998;48.798;15.066;2022-08-01T09:26:47;3.33;;;1.90;;
46266;SDS011;31998;48.798;15.066;2022-08-01T09:29:19;2.70;;;2.50;;
46266;SDS011;31998;48.798;15.066;2022-08-01T09:31:46;3.60;;;2.10;;
46266;SDS011;31998;48.798;15.066;2022-08-01T09:34:12;1.70;;;1.60;;
46266;SDS011;31998;48.798;15.066;2022-08-01T09:39:17;4.00;;;2.00;;
46266;SDS011;31998;48.798;15.066;2022-08-01T09:41:44;4.73;;;2.10;;
46266;SDS011;31998;48.798;15.066;2022-08-01T09:44:10;2.40;;;1.83;;
46266;SDS011;31998;48.798;15.066;2022-08-01T09:46:36;5.60;;;2.10;;
46266;SDS011;31998;48.798;15.066;2022-08-01T09:49:14;1.77;;;1.67;;
46266;SDS011;31998;48.798;15.066;2022-08-01T09:51:39;1.80;;;1.67;;
46266;SDS011;31998;48.798;15.066;2022-08-01T09:54:05;1.53;;;1.53;;
46266;SDS011;31998;48.798;15.066;2022-08-01T09:56:35;2.30;;;1.70;;
46266;SDS011;31998;48.798;15.066;2022-08-01T09:59:02;2.30;;;1.53;;
46266;SDS011;31998;48.798;15.066;2022-08-01T10:01:44;1.60;;;1.60;;
46266;SDS011;31998;48.798;15.066;2022-08-01T10:04:12;3.90;;;1.73;;
46266;SDS011;31998;48.798;15.066;2022-08-01T10:06:40;2.00;;;1.73;;
46266;SDS011;31998;48.798;15.066;2022-08-01T10:09:10;3.37;;;1.80;;
46266;SDS011;31998;48.798;15.066;2022-08-01T10:11:37;2.00;;;1.50;;
46266;SDS011;31998;48.798;15.066;2022-08-01T10:14:05;7.13;;;2.27;;
46266;SDS011;31998;48.798;15.066;2022-08-01T10:16:32;1.70;;;1.60;;
46266;SDS011;31998;48.798;15.066;2022-08-01T10:18:59;1.83;;;1.73;;
46266;SDS011;31998;48.798;15.066;2022-08-01T10:21:27;1.57;;;1.40;;
46266;SDS011;31998;48.798;15.066;2022-08-01T10:23:54;1.73;;;1.33;;
46266;SDS011;31998;48.798;15.066;2022-08-01T10:26:21;1.47;;;1.00;;
46266;SDS011;31998;48.798;15.066;2022-08-01T10:28:50;2.30;;;1.27;;
46266;SDS011;31998;48.798;15.066;2022-08-01T10:31:16;0.93;;;0.93;;
46266;SDS011;31998;48.798;15.066;2022-08-01T10:33:43;5.90;;;1.20;;
46266;SDS011;31998;48.798;15.066;2022-08-01T10:36:09;2.50;;;1.33;;
46266;SDS011;31998;48.798;15.066;2022-08-01T10:38:35;1.90;;;1.57;;
46266;SDS011;31998;48.798;15.066;2022-08-01T10:41:02;1.70;;;1.70;;
46266;SDS011;31998;48.798;15.066;2022-08-01T10:43:28;2.30;;;1.70;;
46266;SDS011;31998;48.798;15.066;2022-08-01T10:45:54;1.50;;;1.50;;
46266;SDS011;31998;48.798;15.066;2022-08-01T10:48:22;1.43;;;1.43;;
46266;SDS011;31998;48.798;15.066;2022-08-01T10:50:55;4.23;;;1.57;;
46266;SDS011;31998;48.798;15.066;2022-08-01T10:53:25;1.63;;;1.63;;
46266;SDS011;31998;48.798;15.066;2022-08-01T10:58:22;9.10;;;1.70;;
46266;SDS011;31998;48.798;15.066;2022-08-01T11:03:40;1.53;;;1.40;;
46266;SDS011;31998;48.798;15.066;2022-08-01T11:06:06;2.60;;;2.00;;
46266;SDS011;31998;48.798;15.066;2022-08-01T11:08:40;1.50;;;1.40;;
46266;SDS011;31998;48.798;15.066;2022-08-01T11:11:15;1.70;;;1.60;;
46266;SDS011;31998;48.798;15.066;2022-08-01T11:14:00;1.47;;;1.37;;
46266;SDS011;31998;48.798;15.066;2022-08-01T11:16:27;1.90;;;1.63;;
46266;SDS011;31998;48.798;15.066;2022-08-01T11:18:54;1.43;;;1.33;;
46266;SDS011;31998;48.798;15.066;2022-08-01T11:21:19;1.47;;;1.47;;
46266;SDS011;31998;48.798;15.066;2022-08-01T11:23:48;1.30;;;1.30;;
46266;SDS011;31998;48.798;15.066;2022-08-01T11:26:15;2.60;;;1.37;;
46266;SDS011;31998;48.798;15.066;2022-08-01T11:28:42;2.50;;;1.77;;
46266;SDS011;31998;48.798;15.066;2022-08-01T11:38:42;1.60;;;1.50;;
46266;SDS011;31998;48.798;15.066;2022-08-01T11:43:56;1.33;;;1.23;;
46266;SDS011;31998;48.798;15.066;2022-08-01T11:54:46;1.90;;;1.80;;
46266;SDS011;31998;48.798;15.066;2022-08-01T11:57:14;1.80;;;1.70;;
46266;SDS011;31998;48.798;15.066;2022-08-01T11:59:43;1.70;;;1.70;;
46266;SDS011;31998;48.798;15.066;2022-08-01T12:02:16;4.43;;;1.50;;
46266;SDS011;31998;48.798;15.066;2022-08-01T12:04:54;6.20;;;1.80;;
46266;SDS011;31998;48.798;15.066;2022-08-01T12:07:21;1.97;;;1.87;;
46266;SDS011;31998;48.798;15.066;2022-08-01T12:09:48;3.23;;;1.83;;
46266;SDS011;31998;48.798;15.066;2022-08-01T12:12:21;1.50;;;1.50;;
46266;SDS011;31998;48.798;15.066;2022-08-01T12:14:51;4.87;;;1.80;;
46266;SDS011;31998;48.798;15.066;2022-08-01T12:17:20;2.37;;;1.30;;
46266;SDS011;31998;48.798;15.066;2022-08-01T12:19:52;3.37;;;2.27;;
46266;SDS011;31998;48.798;15.066;2022-08-01T12:22:17;5.20;;;1.50;;
46266;SDS011;31998;48.798;15.066;2022-08-01T12:24:48;2.30;;;1.73;;
46266;SDS011;31998;48.798;15.066;2022-08-01T12:27:23;1.60;;;1.50;;
46266;SDS011;31998;48.798;15.066;2022-08-01T12:29:49;2.73;;;1.80;;
46266;SDS011;31998;48.798;15.066;2022-08-01T12:32:48;2.80;;;1.80;;
46266;SDS011;31998;48.798;15.066;2022-08-01T12:35:12;2.00;;;1.90;;
46266;SDS011;31998;48.798;15.066;2022-08-01T12:37:43;1.40;;;1.40;;
46266;SDS011;31998;48.798;15.066;2022-08-01T12:40:11;1.20;;;1.20;;
46266;SDS011;31998;48.798;15.066;2022-08-01T12:42:40;1.67;;;1.57;;
46266;SDS011;31998;48.798;15.066;2022-08-01T12:45:07;1.10;;;1.10;;
46266;SDS011;31998;48.798;15.066;2022-08-01T12:47:35;1.50;;;1.40;;
46266;SDS011;31998;48.798;15.066;2022-08-01T12:50:04;1.00;;;1.00;;
46266;SDS011;31998;48.798;15.066;2022-08-01T12:52:31;1.50;;;1.40;;
46266;SDS011;31998;48.798;15.066;2022-08-01T12:57:30;1.97;;;1.87;;
46266;SDS011;31998;48.798;15.066;2022-08-01T13:00:05;2.47;;;2.33;;
46266;SDS011;31998;48.798;15.066;2022-08-01T13:02:34;2.20;;;1.40;;
46266;SDS011;31998;48.798;15.066;2022-08-01T13:05:00;1.60;;;1.50;;
46266;SDS011;31998;48.798;15.066;2022-08-01T13:07:40;6.03;;;2.10;;
46266;SDS011;31998;48.798;15.066;2022-08-01T13:10:14;5.23;;;2.30;;
46266;SDS011;31998;48.798;15.066;2022-08-01T13:12:40;5.80;;;3.30;;
46266;SDS011;31998;48.798;15.066;2022-08-01T13:15:19;4.50;;;1.77;;
46266;SDS011;31998;48.798;15.066;2022-08-01T13:17:48;5.80;;;1.80;;
46266;SDS011;31998;48.798;15.066;2022-08-01T13:20:22;1.97;;;1.80;;
46266;SDS011;31998;48.798;15.066;2022-08-01T13:22:50;3.17;;;1.60;;
46266;SDS011;31998;48.798;15.066;2022-08-01T13:25:16;3.60;;;2.17;;
46266;SDS011;31998;48.798;15.066;2022-08-01T13:27:42;1.70;;;1.57;;
46266;SDS011;31998;48.798;15.066;2022-08-01T13:30:14;1.63;;;1.63;;
46266;SDS011;31998;48.798;15.066;2022-08-01T13:32:42;1.70;;;1.70;;
46266;SDS011;31998;48.798;15.066;2022-08-01T13:35:09;1.97;;;1.80;;
46266;SDS011;31998;48.798;15.066;2022-08-01T13:37:37;35.87;;;10.37;;
46266;SDS011;31998;48.798;15.066;2022-08-01T13:40:05;23.43;;;11.27;;
46266;SDS011;31998;48.798;15.066;2022-08-01T13:42:33;2.43;;;1.57;;
46266;SDS011;31998;48.798;15.066;2022-08-01T13:44:59;1.57;;;1.50;;
46266;SDS011;31998;48.798;15.066;2022-08-01T13:47:24;1.97;;;1.87;;
46266;SDS011;31998;48.798;15.066;2022-08-01T13:49:50;3.50;;;1.50;;
46266;SDS011;31998;48.798;15.066;2022-08-01T13:52:15;3.30;;;1.60;;
46266;SDS011;31998;48.798;15.066;2022-08-01T13:54:40;3.33;;;1.90;;
46266;SDS011;31998;48.798;15.066;2022-08-01T13:57:06;1.37;;;1.37;;
46266;SDS011;31998;48.798;15.066;2022-08-01T13:59:31;1.50;;;1.40;;
46266;SDS011;31998;48.798;15.066;2022-08-01T14:01:57;3.20;;;1.30;;
46266;SDS011;31998;48.798;15.066;2022-08-01T14:04:22;1.53;;;1.53;;
46266;SDS011;31998;48.798;15.066;2022-08-01T14:06:48;2.33;;;2.13;;
46266;SDS011;31998;48.798;15.066;2022-08-01T14:09:13;1.70;;;1.60;;
46266;SDS011;31998;48.798;15.066;2022-08-01T14:11:41;1.63;;;1.53;;
46266;SDS011;31998;48.798;15.066;2022-08-01T14:14:07;1.10;;;1.10;;
46266;SDS011;31998;48.798;15.066;2022-08-01T14:16:33;1.27;;;1.20;;
46266;SDS011;31998;48.798;15.066;2022-08-01T14:18:59;0.80;;;0.80;;
46266;SDS011;31998;48.798;15.066;2022-08-01T14:21:24;6.00;;;0.97;;
46266;SDS011;31998;48.798;15.066;2022-08-01T14:23:49;0.80;;;0.80;;
46266;SDS011;31998;48.798;15.066;2022-08-01T14:26:15;0.80;;;0.80;;
46266;SDS011;31998;48.798;15.066;2022-08-01T14:28:40;1.00;;;0.80;;
46266;SDS011;31998;48.798;15.066;2022-08-01T14:31:06;3.60;;;1.10;;
46266;SDS011;31998;48.798;15.066;2022-08-01T14:33:32;0.70;;;0.70;;
46266;SDS011;31998;48.798;15.066;2022-08-01T14:35:57;2.10;;;1.20;;
46266;SDS011;31998;48.798;15.066;2022-08-01T14:38:23;0.70;;;0.70;;
46266;SDS011;31998;48.798;15.066;2022-08-01T14:40:49;0.50;;;0.50;;
46266;SDS011;31998;48.798;15.066;2022-08-01T14:43:16;0.77;;;0.77;;
46266;SDS011;31998;48.798;15.066;2022-08-01T14:45:43;0.63;;;0.63;;
46266;SDS011;31998;48.798;15.066;2022-08-01T14:48:08;0.70;;;0.70;;
46266;SDS011;31998;48.798;15.066;2022-08-01T14:50:34;2.23;;;0.80;;
46266;SDS011;31998;48.798;15.066;2022-08-01T14:53:00;2.30;;;0.90;;
46266;SDS011;31998;48.798;15.066;2022-08-01T14:55:25;1.40;;;1.27;;
46266;SDS011;31998;48.798;15.066;2022-08-01T14:57:52;0.77;;;0.77;;
46266;SDS011;31998;48.798;15.066;2022-08-01T15:00:18;2.57;;;1.17;;
46266;SDS011;31998;48.798;15.066;2022-08-01T15:02:44;1.17;;;0.90;;
46266;SDS011;31998;48.798;15.066;2022-08-01T15:05:10;0.83;;;0.83;;
46266;SDS011;31998;48.798;15.066;2022-08-01T15:07:37;0.70;;;0.60;;
46266;SDS011;31998;48.798;15.066;2022-08-01T15:10:03;0.90;;;0.90;;
46266;SDS011;31998;48.798;15.066;2022-08-01T15:12:29;3.83;;;0.70;;